Time;durP1;ratioP1;P1;durP2;ratioP2;P2;SDS_P1;SDS_P2;PMS_P1;PMS_P2;Temp;Humidity;BMP_temperature;BMP_pressure;BME280_temperature;BME280_humidity;BME280_pressure;Samples;Min_cycle;Max_cycle;Signal;HPM_P1;HPM_P2
2022/05/27 00:02:54;;;;;;;7.43;3.70;;;;;;;;;;10446459;28;20041;-69
2022/05/27 00:07:57;;;;;;;10.50;3.37;;;;;;;;;;10433303;28;20041;-68
2022/05/27 00:12:59;;;;;;;7.07;2.83;;;;;;;;;;10434096;28;20298;-68
2022/05/27 00:18:03;;;;;;;7.43;3.17;;;;;;;;;;10433286;28;20057;-68
2022/05/27 00:23:06;;;;;;;4.63;2.67;;;;;;;;;;10432824;28;20111;-68
2022/05/27 00:28:09;;;;;;;9.05;3.35;;;;;;;;;;10433201;28;20277;-67
2022/05/27 00:33:13;;;;;;;7.20;2.78;;;;;;;;;;10433330;28;20049;-68
2022/05/27 00:38:16;;;;;;;4.40;2.47;;;;;;;;;;10430484;28;20386;-68
2022/05/27 00:43:19;;;;;;;5.97;2.75;;;;;;;;;;10432976;28;20340;-68
2022/05/27 00:48:22;;;;;;;3.10;2.47;;;;;;;;;;10432703;28;20041;-68
2022/05/27 00:53:34;;;;;;;3.63;2.60;;;;;;;;;;10431063;28;20094;-68
2022/05/27 00:58:44;;;;;;;6.57;2.38;;;;;;;;;;10445722;28;20328;-68
2022/05/27 01:03:49;;;;;;;6.35;2.55;;;;;;;;;;10444014;28;20056;-67
2022/05/27 01:08:52;;;;;;;4.28;2.38;;;;;;;;;;10430540;28;20038;-68
2022/05/27 01:14:14;;;;;;;8.00;3.47;;;;;;;;;;10431895;28;20061;-68
2022/05/27 01:25:33;;;;;;;5.25;2.28;;;;;;;;;;10428926;28;20053;-68
2022/05/27 01:30:39;;;;;;;3.60;2.08;;;;;;;;;;10431015;28;20058;-68
2022/05/27 01:35:47;;;;;;;5.28;2.50;;;;;;;;;;10445442;28;20053;-68
2022/05/27 01:41:01;;;;;;;3.80;2.00;;;;;;;;;;10443410;28;20336;-67
2022/05/27 01:46:12;;;;;;;6.90;2.30;;;;;;;;;;10444705;28;20042;-67
2022/05/27 01:51:17;;;;;;;5.10;2.55;;;;;;;;;;10411860;28;20057;-67
2022/05/27 01:56:20;;;;;;;;;;;;;;;;;;10422576;28;20272;-68
2022/05/27 02:01:28;;;;;;;6.93;2.72;;;;;;;;;;10430120;28;19917;-68
2022/05/27 02:06:36;;;;;;;3.67;2.40;;;;;;;;;;10431908;28;20099;-67
2022/05/27 02:11:43;;;;;;;6.50;2.38;;;;;;;;;;10443229;28;20050;-68
2022/05/27 02:16:51;;;;;;;5.72;2.25;;;;;;;;;;10427696;28;20080;-68
2022/05/27 02:21:58;;;;;;;2.55;2.13;;;;;;;;;;10432280;28;20042;-67
2022/05/27 02:27:06;;;;;;;11.45;2.88;;;;;;;;;;10442192;28;20522;-68
2022/05/27 02:32:16;;;;;;;7.32;2.78;;;;;;;;;;10447753;28;20096;-68
2022/05/27 02:37:24;;;;;;;5.13;2.25;;;;;;;;;;10452557;28;20267;-67
2022/05/27 02:42:33;;;;;;;7.20;2.20;;;;;;;;;;10451735;28;20328;-67
2022/05/27 02:47:42;;;;;;;3.08;2.55;;;;;;;;;;10438204;28;20249;-68
2022/05/27 02:52:57;;;;;;;2.90;2.33;;;;;;;;;;10438176;28;20104;-68
2022/05/27 02:58:02;;;;;;;7.72;2.65;;;;;;;;;;10450390;28;20049;-68
2022/05/27 03:03:06;;;;;;;8.57;3.25;;;;;;;;;;10437053;28;20370;-68
2022/05/27 03:08:17;;;;;;;7.03;2.95;;;;;;;;;;10436444;28;20183;-67
2022/05/27 03:13:51;;;;;;;6.18;3.42;;;;;;;;;;10435098;28;20061;-68
2022/05/27 03:19:22;;;;;;;9.98;3.92;;;;;;;;;;10416867;28;20045;-68
2022/05/27 03:24:37;;;;;;;5.63;3.95;;;;;;;;;;10435270;28;20056;-68
2022/05/27 03:29:49;;;;;;;12.23;4.67;;;;;;;;;;10447268;28;20236;-68
2022/05/27 03:35:00;;;;;;;7.97;4.43;;;;;;;;;;10448738;28;20087;-68
2022/05/27 03:40:08;;;;;;;6.05;3.88;;;;;;;;;;10448702;28;20224;-68
2022/05/27 03:45:13;;;;;;;5.13;3.85;;;;;;;;;;10444888;28;20053;-68
2022/05/27 03:50:20;;;;;;;6.00;4.07;;;;;;;;;;10433751;28;20335;-68
2022/05/27 03:55:25;;;;;;;4.68;4.05;;;;;;;;;;10448538;28;20045;-68
2022/05/27 04:00:28;;;;;;;5.03;4.25;;;;;;;;;;10432873;28;20033;-68
2022/05/27 04:05:32;;;;;;;5.13;4.15;;;;;;;;;;10415297;28;20042;-68
2022/05/27 04:10:34;;;;;;;6.18;4.28;;;;;;;;;;10413092;28;20037;-68
2022/05/27 04:15:37;;;;;;;11.43;5.35;;;;;;;;;;10422697;28;20062;-68
2022/05/27 04:20:40;;;;;;;5.80;4.72;;;;;;;;;;10433726;28;20050;-68
2022/05/27 04:25:46;;;;;;;9.13;5.38;;;;;;;;;;10433260;28;20041;-69
2022/05/27 04:30:49;;;;;;;9.05;5.57;;;;;;;;;;10446614;28;20050;-69
2022/05/27 04:35:52;;;;;;;7.03;5.40;;;;;;;;;;10432731;28;20053;-67
2022/05/27 04:40:55;;;;;;;8.13;5.93;;;;;;;;;;10431325;28;20271;-68
2022/05/27 04:45:57;;;;;;;6.95;5.88;;;;;;;;;;10431790;28;20213;-69
2022/05/27 04:51:01;;;;;;;7.95;5.85;;;;;;;;;;10432598;28;20045;-67
2022/05/27 04:56:03;;;;;;;6.60;5.50;;;;;;;;;;10432799;28;20049;-68
2022/05/27 05:01:05;;;;;;;10.27;5.82;;;;;;;;;;10430993;28;20048;-67
2022/05/27 05:06:09;;;;;;;8.70;6.82;;;;;;;;;;10434155;28;20050;-69
2022/05/27 05:11:12;;;;;;;9.07;6.57;;;;;;;;;;10428227;28;20543;-73
2022/05/27 05:16:14;;;;;;;9.07;6.07;;;;;;;;;;10427575;28;20061;-68
2022/05/27 05:21:18;;;;;;;10.90;5.93;;;;;;;;;;10430229;28;20052;-68
2022/05/27 05:26:21;;;;;;;12.20;6.78;;;;;;;;;;10429194;28;20080;-68
2022/05/27 05:31:23;;;;;;;9.75;6.28;;;;;;;;;;10431894;28;20058;-68
2022/05/27 05:36:28;;;;;;;8.75;6.15;;;;;;;;;;10429976;28;20382;-68
2022/05/27 05:41:33;;;;;;;10.18;5.93;;;;;;;;;;10445372;28;20049;-68
2022/05/27 05:46:39;;;;;;;13.05;6.55;;;;;;;;;;10428018;28;20052;-69
2022/05/27 05:51:42;;;;;;;9.40;5.88;;;;;;;;;;10442973;28;20041;-68
2022/05/27 05:56:44;;;;;;;6.37;5.10;;;;;;;;;;10416607;28;20041;-67
2022/05/27 06:01:47;;;;;;;6.93;4.75;;;;;;;;;;10429820;28;20113;-67
2022/05/27 06:06:51;;;;;;;8.00;4.78;;;;;;;;;;10435299;28;20199;-68
2022/05/27 06:11:54;;;;;;;7.57;4.82;;;;;;;;;;10437523;28;20087;-67
2022/05/27 06:16:57;;;;;;;6.00;4.60;;;;;;;;;;10435958;28;20053;-68
2022/05/27 06:22:01;;;;;;;6.00;5.03;;;;;;;;;;10435391;28;20087;-67
2022/05/27 06:27:06;;;;;;;5.50;4.55;;;;;;;;;;10435978;28;20045;-68
2022/05/27 06:37:30;;;;;;;5.28;4.32;;;;;;;;;;10446067;28;20048;-68
2022/05/27 06:42:32;;;;;;;;;;;;;;;;;;10432941;28;20052;-67
2022/05/27 06:47:35;;;;;;;4.60;3.33;;;;;;;;;;10435578;28;19929;-69
2022/05/27 06:52:40;;;;;;;3.47;2.90;;;;;;;;;;10425214;28;20336;-67
2022/05/27 06:57:43;;;;;;;6.53;3.08;;;;;;;;;;10426232;28;20283;-68
2022/05/27 07:02:46;;;;;;;3.65;3.15;;;;;;;;;;10420500;28;20037;-69
2022/05/27 07:07:51;;;;;;;4.07;3.10;;;;;;;;;;10419142;28;20332;-68
2022/05/27 07:12:59;;;;;;;4.15;3.00;;;;;;;;;;10417792;28;20041;-67
2022/05/27 07:18:04;;;;;;;2.83;2.58;;;;;;;;;;10420074;28;20058;-69
2022/05/27 07:23:08;;;;;;;3.90;2.53;;;;;;;;;;10417146;28;20049;-69
2022/05/27 07:28:11;;;;;;;;;;;;;;;;;;10416487;28;20085;-69
2022/05/27 07:33:13;;;;;;;3.53;2.60;;;;;;;;;;10421426;28;19929;-68
2022/05/27 07:38:17;;;;;;;3.40;2.80;;;;;;;;;;10423601;28;20049;-69
2022/05/27 07:43:20;;;;;;;;;;;;;;;;;;10424055;28;20052;-67
2022/05/27 07:48:23;;;;;;;4.70;3.30;;;;;;;;;;10417008;28;19925;-72
2022/05/27 07:53:26;;;;;;;5.00;3.53;;;;;;;;;;10417688;28;20254;-67
2022/05/27 07:58:29;;;;;;;5.38;3.33;;;;;;;;;;10429667;28;20053;-69
2022/05/27 08:03:31;;;;;;;3.88;3.47;;;;;;;;;;10433680;28;20048;-68
2022/05/27 08:08:36;;;;;;;6.03;3.25;;;;;;;;;;10433627;28;20045;-68
2022/05/27 08:13:39;;;;;;;6.18;3.38;;;;;;;;;;10419636;28;20041;-68
2022/05/27 08:18:42;;;;;;;3.83;3.17;;;;;;;;;;10446647;28;20041;-68
2022/05/27 08:23:47;;;;;;;10.93;5.30;;;;;;;;;;10431993;28;20041;-70
2022/05/27 08:28:50;;;;;;;12.70;3.22;;;;;;;;;;10432236;28;20356;-68
2022/05/27 08:39:16;;;;;;;3.85;2.50;;;;;;;;;;10431358;28;20041;-67
2022/05/27 08:44:33;;;;;;;6.53;2.15;;;;;;;;;;10425151;28;20359;-68
2022/05/27 08:49:38;;;;;;;2.80;1.98;;;;;;;;;;10446550;28;20064;-68
2022/05/27 08:54:45;;;;;;;4.28;2.47;;;;;;;;;;10432504;28;20042;-69
2022/05/27 08:59:53;;;;;;;8.20;2.97;;;;;;;;;;10446359;28;20328;-68
2022/05/27 09:05:04;;;;;;;3.10;2.33;;;;;;;;;;10445170;28;20478;-68
2022/05/27 09:10:13;;;;;;;3.53;2.15;;;;;;;;;;10446087;28;20144;-68
2022/05/27 09:15:40;;;;;;;6.50;2.30;;;;;;;;;;10438883;28;20049;-67
2022/05/27 09:20:50;;;;;;;4.38;2.60;;;;;;;;;;10412584;28;20057;-68
2022/05/27 09:26:02;;;;;;;9.80;2.53;;;;;;;;;;10391038;28;20064;-68
2022/05/27 09:31:07;;;;;;;8.32;2.30;;;;;;;;;;10422359;28;20201;-69
2022/05/27 09:36:14;;;;;;;4.05;2.00;;;;;;;;;;10431787;28;20324;-67
2022/05/27 09:41:24;;;;;;;8.45;3.13;;;;;;;;;;10448398;28;20045;-68
2022/05/27 09:46:29;;;;;;;4.53;2.08;;;;;;;;;;10439241;28;20053;-67
2022/05/27 09:51:33;;;;;;;2.90;1.98;;;;;;;;;;10439514;28;20361;-68
2022/05/27 09:56:42;;;;;;;2.63;1.80;;;;;;;;;;10439700;28;20240;-68
2022/05/27 10:01:44;;;;;;;9.30;3.15;;;;;;;;;;10452515;28;20050;-68
2022/05/27 10:06:47;;;;;;;;;;;;;;;;;;10440262;28;20073;-69
2022/05/27 10:11:58;;;;;;;3.85;1.73;;;;;;;;;;10439263;28;19917;-69
2022/05/27 10:17:08;;;;;;;4.93;1.45;;;;;;;;;;10415510;28;20084;-68
2022/05/27 10:22:22;;;;;;;6.38;1.90;;;;;;;;;;10413428;28;20375;-68
2022/05/27 10:27:34;;;;;;;3.28;1.35;;;;;;;;;;10411042;28;20046;-67
2022/05/27 10:32:38;;;;;;;6.75;1.75;;;;;;;;;;10451321;28;20041;-67
2022/05/27 10:37:54;;;;;;;5.43;1.83;;;;;;;;;;10438679;28;20041;-68
2022/05/27 10:43:06;;;;;;;6.03;1.77;;;;;;;;;;10450464;28;20096;-70
2022/05/27 10:48:37;;;;;;;4.65;1.83;;;;;;;;;;10446194;28;20033;-68
2022/05/27 10:54:12;;;;;;;6.32;2.00;;;;;;;;;;10437110;28;20418;-69
2022/05/27 11:05:12;;;;;;;2.25;1.58;;;;;;;;;;10423476;28;20048;-68
2022/05/27 11:10:33;;;;;;;3.78;2.00;;;;;;;;;;10439274;28;20033;-69
2022/05/27 11:15:51;;;;;;;3.90;1.77;;;;;;;;;;10441740;28;20108;-68
2022/05/27 11:21:22;;;;;;;7.55;2.15;;;;;;;;;;10436479;28;20113;-69
2022/05/27 11:26:33;;;;;;;3.72;1.98;;;;;;;;;;10450584;28;20072;-68
2022/05/27 11:31:47;;;;;;;6.82;2.05;;;;;;;;;;10450795;28;20045;-69
2022/05/27 11:37:10;;;;;;;4.88;1.95;;;;;;;;;;10450897;28;20052;-69
2022/05/27 11:42:24;;;;;;;8.02;2.05;;;;;;;;;;10448911;28;20043;-67
2022/05/27 11:48:02;;;;;;;2.30;1.70;;;;;;;;;;10450809;28;20049;-68
2022/05/27 11:53:25;;;;;;;6.70;3.45;;;;;;;;;;10449421;28;20048;-68
2022/05/27 11:58:35;;;;;;;3.63;2.13;;;;;;;;;;10435405;28;20037;-68
2022/05/27 12:03:46;;;;;;;5.95;2.10;;;;;;;;;;10448838;28;20041;-69
2022/05/27 12:08:55;;;;;;;8.20;1.95;;;;;;;;;;10433556;28;20333;-68
2022/05/27 12:14:03;;;;;;;3.53;1.50;;;;;;;;;;10444247;28;20045;-68
2022/05/27 12:19:09;;;;;;;4.55;1.88;;;;;;;;;;10446469;28;20045;-68
2022/05/27 12:24:20;;;;;;;5.80;2.15;;;;;;;;;;10409990;28;20104;-68
2022/05/27 12:29:24;;;;;;;5.03;1.45;;;;;;;;;;10447012;28;20124;-68
2022/05/27 12:34:38;;;;;;;;;;;;;;;;;;10434234;28;20063;-68
2022/05/27 12:39:42;;;;;;;4.75;2.28;;;;;;;;;;10432450;28;19925;-69
2022/05/27 12:44:46;;;;;;;9.70;1.40;;;;;;;;;;10433727;28;20376;-69
2022/05/27 12:50:01;;;;;;;3.03;1.30;;;;;;;;;;10433001;28;20332;-69
2022/05/27 12:55:07;;;;;;;2.45;1.20;;;;;;;;;;10432073;28;20041;-68
2022/05/27 13:06:05;;;;;;;2.35;1.42;;;;;;;;;;10446673;28;20282;-68
2022/05/27 13:11:15;;;;;;;5.80;1.80;;;;;;;;;;10421249;28;20074;-69
2022/05/27 13:16:30;;;;;;;7.13;1.33;;;;;;;;;;10401464;28;20062;-68
2022/05/27 13:21:46;;;;;;;1.95;1.20;;;;;;;;;;10421130;28;20042;-68
2022/05/27 13:26:55;;;;;;;5.93;2.38;;;;;;;;;;10440408;28;20060;-68
2022/05/27 13:32:01;;;;;;;5.75;1.70;;;;;;;;;;10446207;28;20087;-68
2022/05/27 13:37:13;;;;;;;5.93;1.40;;;;;;;;;;10445030;28;20045;-69
2022/05/27 13:42:27;;;;;;;2.97;1.47;;;;;;;;;;10431637;28;20057;-69
2022/05/27 13:47:31;;;;;;;3.47;1.60;;;;;;;;;;10404624;28;20053;-68
2022/05/27 13:52:37;;;;;;;2.55;1.30;;;;;;;;;;10422550;28;20108;-69
2022/05/27 13:57:43;;;;;;;4.05;1.50;;;;;;;;;;10445614;28;20045;-68
2022/05/27 14:02:49;;;;;;;8.93;1.88;;;;;;;;;;10398788;28;20050;-68
2022/05/27 14:07:56;;;;;;;10.55;2.03;;;;;;;;;;10438297;28;20049;-69
2022/05/27 14:13:00;;;;;;;8.85;2.03;;;;;;;;;;10431775;28;20088;-69
2022/05/27 14:18:03;;;;;;;;;;;;;;;;;;10410226;28;20128;-68
2022/05/27 14:23:15;;;;;;;5.78;1.73;;;;;;;;;;10406870;28;19917;-68
2022/05/27 14:28:23;;;;;;;5.50;2.03;;;;;;;;;;10449833;28;20041;-68
2022/05/27 14:33:29;;;;;;;3.60;2.00;;;;;;;;;;10453453;28;20240;-70
2022/05/27 14:38:37;;;;;;;6.40;2.20;;;;;;;;;;10452610;28;20052;-69
2022/05/27 14:43:48;;;;;;;6.68;1.80;;;;;;;;;;10452998;28;20095;-68
2022/05/27 14:48:55;;;;;;;5.88;2.17;;;;;;;;;;10415880;28;20084;-71
2022/05/27 14:54:10;;;;;;;5.10;1.92;;;;;;;;;;10447269;28;20034;-68
2022/05/27 14:59:18;;;;;;;5.38;2.03;;;;;;;;;;10438093;28;20053;-69
2022/05/27 15:04:27;;;;;;;10.43;2.22;;;;;;;;;;10450866;28;20041;-69
2022/05/27 15:09:34;;;;;;;6.00;2.33;;;;;;;;;;10450399;28;20241;-67
2022/05/27 15:14:42;;;;;;;6.90;2.28;;;;;;;;;;10445154;28;20057;-68
2022/05/27 15:19:47;;;;;;;6.32;2.38;;;;;;;;;;10449401;28;20072;-67
2022/05/27 15:24:56;;;;;;;4.80;2.17;;;;;;;;;;10435463;28;20041;-67
2022/05/27 15:35:32;;;;;;;9.40;2.53;;;;;;;;;;10434976;28;20049;-69
2022/05/27 15:40:39;;;;;;;5.53;1.75;;;;;;;;;;10433100;28;20065;-67
2022/05/27 15:45:42;;;;;;;5.07;1.83;;;;;;;;;;10449789;28;20048;-69
2022/05/27 15:50:45;;;;;;;7.70;2.08;;;;;;;;;;10428742;28;20053;-70
2022/05/27 15:55:50;;;;;;;6.57;2.33;;;;;;;;;;10436293;28;20055;-68
2022/05/27 16:00:52;;;;;;;;;;;;;;;;;;10437254;28;20095;-70
2022/05/27 16:05:55;;;;;;;4.32;1.85;;;;;;;;;;10434161;28;19947;-69
2022/05/27 16:11:00;;;;;;;4.70;2.10;;;;;;;;;;10437629;28;20042;-69
2022/05/27 16:21:23;;;;;;;4.82;1.95;;;;;;;;;;10447560;28;20046;-69
2022/05/27 16:26:28;;;;;;;2.60;1.90;;;;;;;;;;10434359;28;20040;-68
2022/05/27 16:31:30;;;;;;;6.97;2.10;;;;;;;;;;10411399;28;20042;-68
2022/05/27 16:36:33;;;;;;;6.20;2.10;;;;;;;;;;10423060;28;20053;-69
2022/05/27 16:41:36;;;;;;;4.60;2.22;;;;;;;;;;10432365;28;20080;-68
2022/05/27 16:46:39;;;;;;;10.93;2.27;;;;;;;;;;10433472;28;20046;-68
2022/05/27 16:51:41;;;;;;;5.32;1.95;;;;;;;;;;10432795;28;20053;-69
2022/05/27 16:56:45;;;;;;;5.82;1.83;;;;;;;;;;10432717;28;20042;-69
2022/05/27 17:01:47;;;;;;;7.38;2.15;;;;;;;;;;10429072;28;20238;-69
2022/05/27 17:06:50;;;;;;;10.55;2.15;;;;;;;;;;10432787;28;20037;-69
2022/05/27 17:11:54;;;;;;;5.93;1.83;;;;;;;;;;10433948;28;20268;-68
2022/05/27 17:16:57;;;;;;;1.57;1.27;;;;;;;;;;10431703;28;20054;-69
2022/05/27 17:22:00;;;;;;;4.60;1.95;;;;;;;;;;10402868;28;20117;-69
2022/05/27 17:27:05;;;;;;;3.35;1.30;;;;;;;;;;10420521;28;20052;-70
2022/05/27 17:32:09;;;;;;;2.70;1.20;;;;;;;;;;10446047;28;20041;-70
2022/05/27 17:37:11;;;;;;;10.65;1.60;;;;;;;;;;10433254;28;20041;-69
2022/05/27 17:42:14;;;;;;;2.70;1.55;;;;;;;;;;10395665;28;20049;-67
2022/05/27 17:52:37;;;;;;;2.90;1.52;;;;;;;;;;10432220;28;20053;-69
2022/05/27 17:57:43;;;;;;;3.78;1.85;;;;;;;;;;10432052;28;20041;-67
2022/05/27 18:02:46;;;;;;;6.78;2.13;;;;;;;;;;10436676;28;20041;-70
2022/05/27 18:07:48;;;;;;;3.55;1.77;;;;;;;;;;10439314;28;20109;-68
2022/05/27 18:12:52;;;;;;;3.30;1.88;;;;;;;;;;10439808;28;20092;-70
2022/05/27 18:17:55;;;;;;;1.98;1.58;;;;;;;;;;10439851;28;20053;-68
2022/05/27 18:22:58;;;;;;;5.22;2.10;;;;;;;;;;10440381;28;20079;-68
2022/05/27 18:28:01;;;;;;;3.92;2.28;;;;;;;;;;10439205;28;20332;-69
2022/05/27 18:33:04;;;;;;;7.15;2.10;;;;;;;;;;10439043;28;20045;-73
2022/05/27 18:38:07;;;;;;;5.32;1.77;;;;;;;;;;10440307;28;20115;-68
2022/05/27 18:43:10;;;;;;;3.38;1.80;;;;;;;;;;10438642;28;20045;-68
2022/05/27 18:48:13;;;;;;;5.20;1.70;;;;;;;;;;10439669;28;20056;-68
2022/05/27 18:53:16;;;;;;;9.20;2.28;;;;;;;;;;10407765;28;20052;-68
2022/05/27 18:58:23;;;;;;;3.83;2.20;;;;;;;;;;10429320;28;20352;-67
2022/05/27 19:03:25;;;;;;;10.48;2.22;;;;;;;;;;10438833;28;20268;-68
2022/05/27 19:08:28;;;;;;;8.30;2.55;;;;;;;;;;10437618;28;20041;-68
2022/05/27 19:13:32;;;;;;;6.65;2.55;;;;;;;;;;10437143;28;20048;-68
2022/05/27 19:23:55;;;;;;;6.88;2.47;;;;;;;;;;10450654;28;20050;-68
2022/05/27 19:28:59;;;;;;;4.82;2.50;;;;;;;;;;10403657;28;20053;-68
2022/05/27 19:34:01;;;;;;;4.53;2.35;;;;;;;;;;10426665;28;20048;-69
2022/05/27 19:39:04;;;;;;;5.72;2.40;;;;;;;;;;10435618;28;20356;-67
2022/05/27 19:44:08;;;;;;;7.38;2.60;;;;;;;;;;10436826;28;20054;-69
2022/05/27 19:49:10;;;;;;;6.53;2.17;;;;;;;;;;10435420;28;20328;-68
2022/05/27 19:54:13;;;;;;;5.20;2.00;;;;;;;;;;10433890;28;20047;-69
2022/05/27 19:59:35;;;;;;;4.88;2.42;;;;;;;;;;10436285;28;20049;-68
2022/05/27 20:04:57;;;;;;;7.68;2.00;;;;;;;;;;10433610;28;20049;-69
2022/05/27 20:10:06;;;;;;;5.90;2.30;;;;;;;;;;10448985;28;20222;-67
2022/05/27 20:15:13;;;;;;;10.40;2.75;;;;;;;;;;10434677;28;20368;-68
2022/05/27 20:20:17;;;;;;;15.32;2.58;;;;;;;;;;10442628;28;20199;-67
2022/05/27 20:25:20;;;;;;;9.00;2.50;;;;;;;;;;10395538;28;20044;-68
2022/05/27 20:30:24;;;;;;;3.30;1.85;;;;;;;;;;10434691;28;20072;-68
2022/05/27 20:36:57;;;;;;;9.80;2.25;;;;;;;;;;10433718;28;20041;-69
2022/05/27 20:40:49;;;;;;;3.72;1.85;;;;;;;;;;10394501;28;20042;-68
2022/05/27 20:45:52;;;;;;;3.80;2.33;;;;;;;;;;10433948;28;20045;-69
2022/05/27 20:50:55;;;;;;;6.32;2.30;;;;;;;;;;10426411;28;20052;-69
2022/05/27 20:55:58;;;;;;;2.90;1.83;;;;;;;;;;10434480;28;20041;-69
2022/05/27 21:01:02;;;;;;;12.43;1.83;;;;;;;;;;10433200;28;20045;-67
2022/05/27 21:06:05;;;;;;;1.67;1.48;;;;;;;;;;10433065;28;20049;-67
2022/05/27 21:11:08;;;;;;;4.45;1.30;;;;;;;;;;10432614;28;20284;-69
2022/05/27 21:16:14;;;;;;;7.15;2.35;;;;;;;;;;10431648;28;20252;-68
2022/05/27 21:21:18;;;;;;;5.32;1.83;;;;;;;;;;10442185;28;20375;-68
2022/05/27 21:26:22;;;;;;;6.40;1.85;;;;;;;;;;10430704;28;20133;-67
2022/05/27 21:31:25;;;;;;;3.38;1.45;;;;;;;;;;10429690;28;20325;-68
2022/05/27 21:36:29;;;;;;;2.60;1.48;;;;;;;;;;10431052;28;20228;-68
2022/05/27 21:41:33;;;;;;;4.30;1.63;;;;;;;;;;10407776;28;20053;-68
2022/05/27 21:46:36;;;;;;;3.03;1.77;;;;;;;;;;10432405;28;20076;-68
2022/05/27 21:51:39;;;;;;;1.67;1.33;;;;;;;;;;10432812;28;20096;-68
2022/05/27 21:56:41;;;;;;;4.18;1.70;;;;;;;;;;10428618;28;20298;-67
2022/05/27 22:01:45;;;;;;;1.63;1.40;;;;;;;;;;10403346;28;20041;-67
2022/05/27 22:06:47;;;;;;;2.95;1.55;;;;;;;;;;10431243;28;20376;-66
2022/05/27 22:17:11;;;;;;;4.97;1.88;;;;;;;;;;10424858;28;20068;-68
2022/05/27 22:22:16;;;;;;;2.70;1.77;;;;;;;;;;10394579;28;20057;-67
2022/05/27 22:27:18;;;;;;;2.33;1.55;;;;;;;;;;10429147;28;20049;-68
2022/05/27 22:32:26;;;;;;;6.95;2.00;;;;;;;;;;10430780;28;20069;-68
2022/05/27 22:37:30;;;;;;;3.50;1.65;;;;;;;;;;10429553;28;20057;-67
2022/05/27 22:42:32;;;;;;;3.77;1.83;;;;;;;;;;10404308;28;20045;-68
2022/05/27 22:47:37;;;;;;;7.22;2.30;;;;;;;;;;10418891;28;20050;-67
2022/05/27 22:52:39;;;;;;;4.20;2.17;;;;;;;;;;10411800;28;20232;-68
2022/05/27 22:57:42;;;;;;;2.00;1.70;;;;;;;;;;10438652;28;20064;-67
2022/05/27 23:02:46;;;;;;;6.28;1.90;;;;;;;;;;10437933;28;20050;-66
2022/05/27 23:07:48;;;;;;;2.70;1.92;;;;;;;;;;10437617;28;20041;-67
2022/05/27 23:18:23;;;;;;;3.38;2.03;;;;;;;;;;10438898;28;20426;-67
2022/05/27 23:23:28;;;;;;;3.47;2.00;;;;;;;;;;10451592;28;20045;-67
2022/05/27 23:28:30;;;;;;;2.95;2.38;;;;;;;;;;10436569;28;20306;-67
2022/05/27 23:33:34;;;;;;;8.98;3.00;;;;;;;;;;10437287;28;20049;-66
2022/05/27 23:38:37;;;;;;;4.85;2.58;;;;;;;;;;10437261;28;20061;-67
2022/05/27 23:43:39;;;;;;;5.07;2.72;;;;;;;;;;10436008;28;20067;-67
2022/05/27 23:48:43;;;;;;;12.45;2.92;;;;;;;;;;10436024;28;20042;-68
2022/05/27 23:53:47;;;;;;;3.97;2.28;;;;;;;;;;10435839;28;20041;-67
2022/05/27 23:58:51;;;;;;;8.97;2.93;;;;;;;;;;10435370;28;20064;-67
